Terminal Aerodrome Forecast
Issued by NWS Sioux Falls, SD

Home | Current Version | Previous Version | Graphics & Text | Print | Product List | Glossary On
Versions: 1 2 3 4 5 6 7 8 9 10 11 12 13 14 15 16
000
FTUS43 KFSD 222113 AAA
TAFHON
TAF AMD
KHON 222113Z 2221/2318 04015KT P6SM BKN080
     FM222145 36025G45KT P6SM VCTS BKN040CB
      TEMPO 2222/2223 3SM TSRAGR OVC025CB
     FM222300 07012KT P6SM BKN040
     FM230100 12010KT P6SM SCT050 SCT150
     FM231600 16011KT P6SM BKN250=

USA.gov is the U.S. government's official web portal to all federal, state and local government web resources and services.